Time;durP1;ratioP1;P1;durP2;ratioP2;P2;SDS_P1;SDS_P2;PMS_P1;PMS_P2;Temp;Humidity;BMP_temperature;BMP_pressure;BME280_temperature;BME280_humidity;BME280_pressure;Samples;Min_cycle;Max_cycle;Signal;HPM_P1;HPM_P2
2022/09/23 00:00:41;;;;;;;5.70;3.50;;;9.70;99.90;;;;;;5034334;28;20084;-83
2022/09/23 00:03:07;;;;;;;4.78;3.35;;;9.70;99.90;;;;;;5034207;28;20042;-83
2022/09/23 00:05:33;;;;;;;7.28;3.50;;;9.70;99.90;;;;;;5033784;28;20041;-83
2022/09/23 00:08:00;;;;;;;8.18;4.18;;;9.70;99.90;;;;;;5033611;28;20495;-83
2022/09/23 00:10:29;;;;;;;5.05;3.33;;;9.70;99.90;;;;;;5033340;28;20045;-83
2022/09/23 00:12:55;;;;;;;8.15;4.35;;;9.70;99.90;;;;;;5033551;28;20072;-83
2022/09/23 00:15:21;;;;;;;6.85;4.47;;;9.70;99.90;;;;;;5033633;28;20076;-83
2022/09/23 00:17:47;;;;;;;6.15;3.85;;;9.70;99.90;;;;;;5033545;28;20045;-83
2022/09/23 00:20:13;;;;;;;7.07;3.70;;;9.80;99.90;;;;;;5000632;28;20045;-83
2022/09/23 00:22:39;;;;;;;8.73;4.28;;;9.80;99.90;;;;;;5033758;28;20071;-83
2022/09/23 00:25:06;;;;;;;8.93;4.35;;;9.70;99.90;;;;;;5033325;28;20514;-83
2022/09/23 00:27:32;;;;;;;9.35;4.30;;;9.80;99.90;;;;;;5016946;28;20041;-83
2022/09/23 00:29:59;;;;;;;6.18;4.03;;;9.80;99.90;;;;;;5016687;28;20120;-83
2022/09/23 00:32:24;;;;;;;5.30;3.45;;;9.80;99.90;;;;;;5017094;28;20048;-83
2022/09/23 00:34:51;;;;;;;5.82;3.60;;;9.90;99.90;;;;;;5033559;28;20042;-83
2022/09/23 00:37:20;;;;;;;8.52;4.30;;;9.80;99.90;;;;;;4997389;28;20046;-83
2022/09/23 00:39:46;;;;;;;6.72;4.78;;;9.80;99.90;;;;;;5008292;28;20049;-83
2022/09/23 00:42:15;;;;;;;7.25;4.20;;;9.80;99.90;;;;;;5017240;28;20439;-83
2022/09/23 00:44:51;;;;;;;5.25;3.05;;;9.80;99.90;;;;;;5016937;28;20048;-83
2022/09/23 00:47:38;;;;;;;6.90;3.95;;;9.80;99.90;;;;;;5032711;28;20057;-83
2022/09/23 00:50:39;;;;;;;10.45;4.32;;;9.80;99.90;;;;;;5029316;28;20041;-83
2022/09/23 00:53:09;;;;;;;7.53;3.60;;;9.70;99.90;;;;;;5033360;28;20038;-83
2022/09/23 00:55:41;;;;;;;5.07;3.28;;;9.70;99.90;;;;;;5032743;28;20034;-83
2022/09/23 00:58:11;;;;;;;6.25;3.75;;;9.60;99.90;;;;;;5033181;28;20479;-83
2022/09/23 01:00:37;;;;;;;6.28;4.28;;;9.60;99.90;;;;;;5016207;28;20037;-83
2022/09/23 01:03:05;;;;;;;5.63;3.63;;;9.60;99.90;;;;;;5033025;28;20073;-83
2022/09/23 01:05:32;;;;;;;7.50;4.43;;;9.60;99.90;;;;;;5032615;28;20495;-83
2022/09/23 01:08:00;;;;;;;7.03;4.00;;;9.60;99.90;;;;;;5016508;28;20045;-83
2022/09/23 01:10:32;;;;;;;10.20;5.28;;;9.50;99.90;;;;;;5015891;28;20452;-83
2022/09/23 01:13:22;;;;;;;6.55;3.85;;;9.50;99.90;;;;;;5032741;28;20041;-83
2022/09/23 01:16:06;;;;;;;7.28;4.22;;;9.50;99.90;;;;;;5010860;28;20069;-83
2022/09/23 01:18:58;;;;;;;6.03;3.92;;;9.50;99.90;;;;;;5023339;28;20041;-83
2022/09/23 01:21:51;;;;;;;8.35;4.65;;;9.60;99.90;;;;;;5032620;28;20493;-83
2022/09/23 01:24:40;;;;;;;8.27;4.97;;;9.60;99.90;;;;;;5032396;28;20396;-83
2022/09/23 01:27:36;;;;;;;7.15;4.38;;;9.60;99.90;;;;;;5032204;28;20115;-84
2022/09/23 01:30:05;;;;;;;6.90;3.97;;;9.60;99.90;;;;;;5032823;28;20052;-83
2022/09/23 01:32:34;;;;;;;8.23;5.50;;;9.70;99.90;;;;;;5030092;28;20037;-83
2022/09/23 01:35:16;;;;;;;7.43;4.40;;;9.70;99.90;;;;;;5032394;28;20038;-83
2022/09/23 01:38:02;;;;;;;7.13;3.92;;;9.80;99.90;;;;;;5015260;28;20037;-83
2022/09/23 01:40:59;;;;;;;6.90;4.50;;;9.70;99.90;;;;;;5032187;28;20096;-83
2022/09/23 01:43:34;;;;;;;8.52;4.70;;;9.70;99.90;;;;;;5015952;28;20041;-83
2022/09/23 01:46:06;;;;;;;7.22;4.20;;;9.80;99.90;;;;;;5015487;28;20037;-84
2022/09/23 01:49:18;;;;;;;7.10;3.90;;;10.00;99.90;;;;;;5014952;28;20041;-83
2022/09/23 01:51:55;;;;;;;7.47;4.25;;;9.70;99.90;;;;;;4956632;28;20031;-83
2022/09/23 01:54:31;;;;;;;7.20;3.80;;;9.70;99.90;;;;;;4940317;28;20152;-83
2022/09/23 01:57:05;;;;;;;8.98;4.57;;;9.70;99.90;;;;;;5005299;28;20049;-83
2022/09/23 01:59:39;;;;;;;10.35;5.72;;;9.70;99.90;;;;;;5015675;28;20038;-83
2022/09/23 02:02:14;;;;;;;7.78;5.70;;;9.70;99.90;;;;;;5015602;28;20044;-83
2022/09/23 02:04:42;;;;;;;9.18;5.28;;;9.60;99.90;;;;;;5015212;28;20042;-84
2022/09/23 02:07:24;;;;;;;9.27;5.57;;;9.60;99.90;;;;;;5027968;28;20068;-83
2022/09/23 02:10:04;;;;;;;8.52;5.32;;;9.60;99.90;;;;;;5023059;28;20518;-83
2022/09/23 02:12:34;;;;;;;8.82;5.25;;;9.50;99.90;;;;;;5032003;28;20072;-83
2022/09/23 02:15:07;;;;;;;7.15;5.03;;;9.50;99.90;;;;;;5015397;28;20038;-83
2022/09/23 02:17:45;;;;;;;6.88;4.50;;;9.40;99.90;;;;;;5031795;28;20403;-83
2022/09/23 02:20:14;;;;;;;10.93;4.47;;;9.40;99.90;;;;;;5015584;28;20052;-83
2022/09/23 02:23:06;;;;;;;7.35;4.13;;;9.30;99.90;;;;;;4999493;28;20042;-83
2022/09/23 02:25:54;;;;;;;6.63;4.65;;;9.10;99.90;;;;;;5005083;28;20088;-83
2022/09/23 02:28:31;;;;;;;7.25;4.43;;;9.10;99.90;;;;;;5031632;28;20391;-83
2022/09/23 02:31:21;;;;;;;7.22;4.30;;;9.00;99.90;;;;;;5031587;28;20037;-83
2022/09/23 02:33:54;;;;;;;7.75;4.60;;;8.90;99.90;;;;;;5015698;28;20068;-82
2022/09/23 02:36:26;;;;;;;5.18;3.28;;;8.80;99.90;;;;;;5015035;28;20369;-82
2022/09/23 02:38:56;;;;;;;6.90;4.40;;;8.80;99.90;;;;;;5015136;28;20037;-82
2022/09/23 02:41:31;;;;;;;6.55;3.90;;;8.70;99.90;;;;;;5015258;28;20053;-82
2022/09/23 02:44:06;;;;;;;8.40;4.63;;;9.60;99.90;;;;;;5031829;28;20103;-81
2022/09/23 02:46:32;;;;;;;8.07;4.38;;;8.60;99.90;;;;;;5030916;28;20072;-81
2022/09/23 02:49:10;;;;;;;7.72;5.57;;;8.50;99.90;;;;;;5015000;28;20456;-81
2022/09/23 02:51:37;;;;;;;9.13;4.80;;;8.50;99.90;;;;;;5032051;28;20084;-81
2022/09/23 02:54:09;;;;;;;8.07;4.68;;;8.50;99.90;;;;;;5015634;28;20049;-81
2022/09/23 02:56:36;;;;;;;7.63;4.50;;;8.50;99.90;;;;;;5015044;28;20419;-81
2022/09/23 02:59:02;;;;;;;6.53;4.50;;;8.60;99.90;;;;;;5031315;28;20042;-81
2022/09/23 03:01:46;;;;;;;8.05;4.20;;;8.50;99.90;;;;;;5000411;28;20073;-81
2022/09/23 03:04:41;;;;;;;5.70;3.75;;;8.50;99.90;;;;;;5035337;28;20480;-81
2022/09/23 03:07:19;;;;;;;9.23;4.57;;;8.40;99.90;;;;;;5035148;28;20045;-81
2022/09/23 03:10:01;;;;;;;7.82;4.25;;;8.40;99.90;;;;;;5035274;28;20033;-81
2022/09/23 03:12:34;;;;;;;9.10;4.55;;;8.40;99.90;;;;;;5034568;28;20045;-81
2022/09/23 03:15:32;;;;;;;8.05;4.63;;;8.30;99.90;;;;;;5035451;28;20107;-81
2022/09/23 03:18:08;;;;;;;;;;;8.30;99.90;;;;;;5035245;28;20068;-81
2022/09/23 03:20:41;;;;;;;6.93;4.57;;;8.20;99.90;;;;;;5018259;28;19971;-81
2022/09/23 03:23:11;;;;;;;6.57;4.10;;;8.70;99.90;;;;;;5035310;28;20038;-83
2022/09/23 03:25:40;;;;;;;5.25;4.03;;;8.20;99.90;;;;;;5034856;28;20052;-83
2022/09/23 03:28:07;;;;;;;9.32;5.35;;;8.90;99.90;;;;;;5034571;28;20041;-83
2022/09/23 03:30:36;;;;;;;6.50;4.57;;;8.20;99.90;;;;;;5017050;28;20099;-83
2022/09/23 03:33:04;;;;;;;7.25;4.88;;;8.20;99.90;;;;;;5034870;28;20373;-83
2022/09/23 03:36:48;;;;;;;10.50;6.55;;;8.20;99.90;;;;;;5034666;28;20068;-83
2022/09/23 03:38:23;;;;;;;11.77;7.35;;;8.20;99.90;;;;;;5034134;28;20041;-83
2022/09/23 03:40:50;;;;;;;12.23;5.55;;;8.80;99.90;;;;;;5017658;28;20435;-83
2022/09/23 03:43:16;;;;;;;10.02;5.57;;;8.20;99.90;;;;;;5018015;28;20050;-83
2022/09/23 03:45:42;;;;;;;10.07;5.65;;;8.30;99.90;;;;;;5034320;28;20095;-83
2022/09/23 03:48:08;;;;;;;8.00;4.85;;;8.50;99.90;;;;;;5034254;28;20053;-83
2022/09/23 03:50:34;;;;;;;8.07;5.07;;;8.20;99.90;;;;;;5017331;28;20044;-83
2022/09/23 03:53:00;;;;;;;7.63;4.57;;;8.20;99.90;;;;;;5017856;28;20037;-83
2022/09/23 03:55:26;;;;;;;7.38;4.32;;;8.20;99.90;;;;;;5034320;28;20086;-83
2022/09/23 03:57:52;;;;;;;8.77;4.82;;;8.10;99.90;;;;;;5017911;28;20403;-83
2022/09/23 04:00:18;;;;;;;7.60;4.30;;;8.10;99.90;;;;;;5033859;28;20041;-83
2022/09/23 04:02:44;;;;;;;6.00;3.95;;;8.10;99.90;;;;;;5034144;28;20037;-82
2022/09/23 04:05:11;;;;;;;8.65;4.28;;;8.10;99.90;;;;;;5032769;28;20049;-83
2022/09/23 04:07:37;;;;;;;8.60;4.70;;;8.10;99.90;;;;;;5054044;28;20064;-83
2022/09/23 04:10:04;;;;;;;7.95;5.07;;;8.10;99.90;;;;;;5043422;28;20037;-83
2022/09/23 04:12:30;;;;;;;7.25;4.68;;;8.10;99.90;;;;;;5033091;28;20040;-83
2022/09/23 04:14:56;;;;;;;9.45;5.18;;;8.10;99.90;;;;;;5034011;28;20045;-82
2022/09/23 04:17:21;;;;;;;7.40;4.55;;;8.10;99.90;;;;;;5033877;28;20407;-83
2022/09/23 04:19:47;;;;;;;8.15;4.32;;;8.10;99.90;;;;;;5033187;28;20037;-83
2022/09/23 04:22:13;;;;;;;8.23;4.63;;;8.00;99.90;;;;;;5033585;28;20045;-83
2022/09/23 04:24:38;;;;;;;9.68;4.90;;;8.00;99.90;;;;;;5001014;28;20494;-83
2022/09/23 04:27:04;;;;;;;9.88;5.53;;;8.00;99.90;;;;;;5017149;28;20045;-83
2022/09/23 04:29:30;;;;;;;8.30;4.68;;;8.00;99.90;;;;;;5017294;28;20391;-83
2022/09/23 04:31:56;;;;;;;7.60;4.47;;;8.00;99.90;;;;;;5015952;28;20044;-83
2022/09/23 04:34:22;;;;;;;7.47;4.20;;;8.00;99.90;;;;;;5033168;28;20029;-83
2022/09/23 04:36:48;;;;;;;9.50;4.05;;;8.10;99.90;;;;;;5033479;28;20038;-83
2022/09/23 04:39:15;;;;;;;8.05;4.72;;;8.00;99.90;;;;;;5000660;28;20041;-83
2022/09/23 04:41:42;;;;;;;6.32;4.80;;;8.10;99.90;;;;;;5032795;28;20128;-83
2022/09/23 04:44:08;;;;;;;8.23;4.40;;;8.10;99.90;;;;;;5032882;28;20052;-83
2022/09/23 04:46:33;;;;;;;9.20;5.50;;;8.10;99.90;;;;;;5033199;28;20037;-83
2022/09/23 04:48:59;;;;;;;9.38;5.63;;;8.10;99.90;;;;;;5016689;28;20567;-83
2022/09/23 04:51:26;;;;;;;8.65;5.53;;;8.20;99.90;;;;;;5033256;28;20048;-83
2022/09/23 04:53:52;;;;;;;8.40;5.13;;;8.10;99.90;;;;;;5032953;28;20399;-83
2022/09/23 04:56:31;;;;;;;8.70;5.40;;;8.20;99.90;;;;;;5033061;28;20041;-83
2022/09/23 04:58:57;;;;;;;9.95;5.70;;;8.20;99.90;;;;;;5033427;28;20056;-83
2022/09/23 05:01:25;;;;;;;8.93;5.10;;;8.20;99.90;;;;;;5033265;28;20507;-83
2022/09/23 05:03:57;;;;;;;8.30;5.25;;;8.40;99.90;;;;;;5032584;28;20115;-83
2022/09/23 05:06:24;;;;;;;9.15;5.55;;;8.30;99.90;;;;;;5032375;28;20483;-83
2022/09/23 05:08:54;;;;;;;9.45;5.40;;;8.30;99.90;;;;;;5032906;28;20049;-83
2022/09/23 05:11:21;;;;;;;9.32;5.55;;;8.30;99.90;;;;;;5016409;28;20096;-83
2022/09/23 05:13:49;;;;;;;9.43;5.90;;;8.40;99.90;;;;;;5032254;28;20594;-84
2022/09/23 05:16:15;;;;;;;9.80;5.38;;;8.40;99.90;;;;;;5016348;28;20046;-83
2022/09/23 05:18:42;;;;;;;9.02;5.15;;;8.60;99.90;;;;;;5016362;28;20087;-83
2022/09/23 05:21:14;;;;;;;8.88;5.55;;;8.50;99.90;;;;;;5032693;28;20042;-83
2022/09/23 05:23:41;;;;;;;10.95;6.50;;;8.50;99.90;;;;;;5033376;28;20045;-83
2022/09/23 05:26:10;;;;;;;9.27;6.13;;;8.60;99.90;;;;;;5015230;28;20092;-83
2022/09/23 05:28:38;;;;;;;8.55;5.40;;;8.60;99.90;;;;;;5007514;28;20037;-83
2022/09/23 05:31:15;;;;;;;10.10;6.45;;;8.60;99.90;;;;;;5032705;28;20447;-83
2022/09/23 05:33:46;;;;;;;10.15;6.05;;;8.70;99.90;;;;;;5032434;28;20151;-83
2022/09/23 05:36:12;;;;;;;9.45;6.07;;;8.70;99.90;;;;;;5015963;28;20034;-83
2022/09/23 05:38:38;;;;;;;8.00;5.85;;;8.70;99.90;;;;;;5032420;28;20099;-83
2022/09/23 05:41:06;;;;;;;9.35;5.75;;;8.80;99.90;;;;;;5031187;28;20053;-85
2022/09/23 05:43:34;;;;;;;10.27;5.90;;;8.80;99.90;;;;;;4994445;28;20395;-85
2022/09/23 05:46:05;;;;;;;7.50;4.90;;;8.80;99.90;;;;;;5032326;28;20095;-85
2022/09/23 05:48:31;;;;;;;7.40;5.28;;;8.90;99.90;;;;;;5015607;28;20044;-81
2022/09/23 05:50:58;;;;;;;9.20;5.50;;;8.90;99.90;;;;;;5032352;28;20100;-82
2022/09/23 05:53:24;;;;;;;9.75;5.45;;;9.00;99.90;;;;;;5015745;28;20556;-81
2022/09/23 05:55:50;;;;;;;7.97;5.28;;;9.00;99.90;;;;;;5031747;28;20514;-81
2022/09/23 05:58:16;;;;;;;7.88;5.25;;;9.10;99.90;;;;;;5028566;22;20639;-86
2022/09/23 06:00:43;;;;;;;11.35;5.88;;;10.40;99.90;;;;;;4995946;28;20042;-85
2022/09/23 06:03:13;;;;;;;8.00;4.88;;;9.10;99.90;;;;;;5004393;28;20488;-85
2022/09/23 06:05:39;;;;;;;9.38;5.07;;;9.10;99.90;;;;;;5005794;28;20038;-85
2022/09/23 06:08:06;;;;;;;11.35;6.13;;;9.20;99.90;;;;;;4995741;28;20447;-86
2022/09/23 06:10:36;;;;;;;7.20;5.07;;;9.70;99.90;;;;;;4984130;28;20518;-84
2022/09/23 06:13:02;;;;;;;8.48;5.65;;;9.40;99.90;;;;;;5013701;28;20364;-84
2022/09/23 06:15:27;;;;;;;9.02;5.43;;;9.50;99.90;;;;;;4996047;28;20038;-84
2022/09/23 06:17:53;;;;;;;8.93;5.38;;;9.50;99.90;;;;;;4979435;28;20041;-84
2022/09/23 06:20:19;;;;;;;8.77;4.90;;;10.10;99.90;;;;;;5005319;28;20079;-84
2022/09/23 06:22:54;;;;;;;9.57;6.20;;;9.60;99.90;;;;;;5008240;28;20128;-84
2022/09/23 06:25:21;;;;;;;10.17;6.20;;;9.80;99.90;;;;;;4984639;28;20132;-84
2022/09/23 06:27:54;;;;;;;9.80;5.07;;;9.80;99.90;;;;;;5026583;28;20041;-85
2022/09/23 06:30:22;;;;;;;10.15;6.63;;;9.70;99.90;;;;;;5011864;28;20043;-85
2022/09/23 06:32:55;;;;;;;9.38;5.10;;;10.60;99.90;;;;;;5001344;28;20046;-86
2022/09/23 06:35:26;;;;;;;11.45;6.20;;;9.80;99.90;;;;;;4988063;28;20061;-86
2022/09/23 06:37:53;;;;;;;8.07;5.10;;;10.10;99.90;;;;;;4998103;28;20072;-86
2022/09/23 06:40:21;;;;;;;10.50;5.32;;;10.10;99.90;;;;;;4982723;28;20506;-86
2022/09/23 06:42:47;;;;;;;11.80;6.03;;;10.20;99.90;;;;;;5014261;28;20049;-85
2022/09/23 06:45:19;;;;;;;11.23;6.28;;;10.30;99.90;;;;;;4983356;28;20492;-86
2022/09/23 06:47:54;;;;;;;11.25;6.28;;;10.30;99.90;;;;;;4987767;28;20057;-86
2022/09/23 06:50:21;;;;;;;12.02;6.00;;;10.30;99.90;;;;;;5016194;28;20124;-86
2022/09/23 06:52:57;;;;;;;12.10;6.90;;;10.30;99.90;;;;;;5001182;28;20463;-85
2022/09/23 06:55:31;;;;;;;10.43;5.72;;;11.20;99.90;;;;;;5012587;28;20103;-85
2022/09/23 06:57:57;;;;;;;9.27;6.28;;;10.80;99.90;;;;;;4997341;28;20060;-86
2022/09/23 07:00:28;;;;;;;13.23;6.80;;;11.40;99.90;;;;;;5017444;28;20045;-85
2022/09/23 07:03:08;;;;;;;8.05;5.55;;;10.60;99.90;;;;;;5000894;28;20053;-86
2022/09/23 07:05:37;;;;;;;11.27;6.53;;;10.70;99.90;;;;;;5030005;28;20057;-85
2022/09/23 07:08:08;;;;;;;11.30;6.20;;;10.90;99.90;;;;;;5007497;28;20041;-85
2022/09/23 07:10:49;;;;;;;10.95;6.00;;;11.00;99.90;;;;;;5015380;28;20042;-85
2022/09/23 07:13:35;;;;;;;8.95;5.15;;;11.40;99.90;;;;;;4986687;28;20538;-85
2022/09/23 07:16:04;;;;;;;9.23;6.43;;;11.40;99.90;;;;;;5008437;28;20129;-85
2022/09/23 07:18:32;;;;;;;10.30;5.50;;;11.60;99.90;;;;;;5004584;28;20547;-85
2022/09/23 07:21:08;;;;;;;8.55;5.22;;;11.90;99.90;;;;;;4992573;28;20049;-85
2022/09/23 07:23:36;;;;;;;11.00;6.35;;;12.20;99.90;;;;;;5017171;28;20057;-86
2022/09/23 07:26:03;;;;;;;9.23;5.65;;;12.60;99.90;;;;;;5002920;28;20073;-86
2022/09/23 07:28:29;;;;;;;9.43;5.38;;;13.10;99.90;;;;;;5025712;28;20077;-85
2022/09/23 07:30:55;;;;;;;9.93;5.72;;;13.60;99.90;;;;;;5001602;28;20099;-86
2022/09/23 07:33:21;;;;;;;8.40;4.60;;;14.10;99.90;;;;;;5019908;28;20037;-85
2022/09/23 07:35:47;;;;;;;9.32;5.40;;;14.40;99.90;;;;;;5019473;28;20045;-85
2022/09/23 07:38:12;;;;;;;8.27;5.30;;;14.50;99.90;;;;;;5018186;28;20492;-85
2022/09/23 07:40:38;;;;;;;6.85;4.68;;;14.30;99.90;;;;;;5018198;28;20127;-85
2022/09/23 07:43:05;;;;;;;8.07;4.72;;;14.20;99.90;;;;;;5001686;28;20045;-86
2022/09/23 07:45:32;;;;;;;9.32;5.20;;;14.00;99.90;;;;;;5000473;28;20049;-86
2022/09/23 07:47:59;;;;;;;7.90;4.50;;;13.80;99.90;;;;;;4977824;28;20042;-86
2022/09/23 07:50:31;;;;;;;9.13;6.25;;;13.60;99.90;;;;;;4998446;28;20057;-88
2022/09/23 07:53:03;;;;;;;11.27;5.50;;;13.40;99.90;;;;;;4999668;28;20045;-87
2022/09/23 07:56:05;;;;;;;8.35;5.40;;;13.20;99.90;;;;;;4998119;28;20373;-87
2022/09/23 07:58:37;;;;;;;;;;;13.20;99.90;;;;;;4995289;28;20070;-87
2022/09/23 08:01:10;;;;;;;6.33;4.17;;;13.20;99.90;;;;;;4963008;28;20280;-86
2022/09/23 08:03:48;;;;;;;11.10;6.07;;;13.30;99.90;;;;;;4980256;28;20088;-84
2022/09/23 08:06:14;;;;;;;9.35;6.15;;;13.50;99.90;;;;;;4962517;28;20101;-86
2022/09/23 08:08:42;;;;;;;8.43;4.63;;;13.50;99.90;;;;;;4978568;28;20046;-87
2022/09/23 08:11:11;;;;;;;11.95;5.88;;;13.70;99.90;;;;;;5004982;28;20045;-86
2022/09/23 08:13:49;;;;;;;9.57;5.32;;;14.10;99.90;;;;;;5014219;28;20545;-87
2022/09/23 08:16:15;;;;;;;9.68;5.68;;;13.80;99.90;;;;;;4981958;28;20042;-87
2022/09/23 08:19:01;;;;;;;7.82;5.40;;;14.40;99.90;;;;;;5014188;28;20534;-86
2022/09/23 08:21:30;;;;;;;11.30;5.38;;;14.50;99.90;;;;;;4986897;28;20042;-86
2022/09/23 08:24:29;;;;;;;7.68;4.35;;;14.70;99.90;;;;;;4994434;28;20049;-86
2022/09/23 08:26:55;;;;;;;8.82;4.80;;;14.70;99.90;;;;;;4986449;28;20054;-85
2022/09/23 08:29:22;;;;;;;11.15;5.32;;;14.90;99.90;;;;;;4978158;28;20485;-85
2022/09/23 08:31:52;;;;;;;9.38;4.88;;;14.90;99.90;;;;;;4978213;28;20496;-85
2022/09/23 08:34:22;;;;;;;6.95;4.40;;;14.90;99.90;;;;;;4962497;28;20117;-85
2022/09/23 08:36:51;;;;;;;7.82;4.85;;;15.10;99.90;;;;;;4994079;28;20046;-85
2022/09/23 08:39:23;;;;;;;6.75;4.43;;;15.20;99.90;;;;;;4979641;28;20043;-86
2022/09/23 08:41:55;;;;;;;6.53;4.28;;;15.30;99.90;;;;;;4999632;28;20459;-87
2022/09/23 08:44:33;;;;;;;8.88;4.47;;;15.40;99.90;;;;;;4995086;28;20081;-87
2022/09/23 08:47:10;;;;;;;7.82;4.25;;;15.50;99.90;;;;;;4978484;28;20457;-87
2022/09/23 08:49:47;;;;;;;8.07;4.40;;;15.40;99.90;;;;;;4994049;28;20390;-87
2022/09/23 08:52:44;;;;;;;7.05;4.68;;;15.50;99.90;;;;;;4998448;28;20445;-87
2022/09/23 08:55:12;;;;;;;6.82;4.93;;;15.50;99.90;;;;;;4984416;28;20103;-87
2022/09/23 08:57:51;;;;;;;7.93;4.85;;;15.70;99.90;;;;;;5025027;28;20107;-86
2022/09/23 09:00:20;;;;;;;7.50;4.38;;;15.20;99.90;;;;;;5017097;28;20456;-85
2022/09/23 09:02:48;;;;;;;8.45;4.43;;;16.00;99.90;;;;;;5009367;28;20050;-85
2022/09/23 09:05:25;;;;;;;6.75;4.07;;;16.20;99.90;;;;;;4997242;28;20049;-85
2022/09/23 09:07:54;;;;;;;6.10;3.42;;;16.20;99.90;;;;;;4997296;28;20116;-85
2022/09/23 09:10:23;;;;;;;7.53;3.97;;;16.20;99.90;;;;;;4997103;28;20488;-85
2022/09/23 09:13:00;;;;;;;7.25;4.57;;;16.30;99.90;;;;;;4997122;28;20038;-85
2022/09/23 09:15:27;;;;;;;9.20;4.82;;;16.20;99.90;;;;;;5013048;28;20049;-85
2022/09/23 09:18:08;;;;;;;8.25;4.07;;;16.10;99.90;;;;;;4996874;28;20091;-85
2022/09/23 09:20:44;;;;;;;7.80;3.85;;;16.10;99.90;;;;;;4996911;28;20551;-85
2022/09/23 09:23:30;;;;;;;7.30;4.00;;;16.00;99.90;;;;;;4997122;28;20041;-85
2022/09/23 09:26:00;;;;;;;8.13;4.70;;;16.00;99.90;;;;;;5008533;28;20053;-85
2022/09/23 09:28:39;;;;;;;8.00;3.97;;;15.90;99.90;;;;;;5015913;28;20049;-85
2022/09/23 09:31:11;;;;;;;5.95;3.38;;;15.90;99.90;;;;;;5016481;28;20041;-86
2022/09/23 09:33:46;;;;;;;8.20;4.45;;;15.90;99.90;;;;;;5005281;28;20034;-86
2022/09/23 09:36:47;;;;;;;6.10;3.28;;;15.90;99.90;;;;;;4997009;28;20034;-86
2022/09/23 09:39:14;;;;;;;6.65;3.80;;;15.90;99.90;;;;;;4978247;28;20500;-86
2022/09/23 09:41:46;;;;;;;6.93;4.40;;;15.90;99.90;;;;;;4996377;28;20488;-86
2022/09/23 09:44:23;;;;;;;8.27;4.63;;;15.80;99.90;;;;;;5001230;28;20396;-86
2022/09/23 09:47:11;;;;;;;9.13;4.90;;;15.80;99.90;;;;;;5032312;28;20479;-85
2022/09/23 09:49:49;;;;;;;9.20;4.90;;;15.80;99.90;;;;;;5014721;28;20381;-86
2022/09/23 09:52:24;;;;;;;6.65;3.92;;;15.90;99.90;;;;;;5012801;28;20042;-86
2022/09/23 09:54:51;;;;;;;7.00;3.35;;;15.90;99.90;;;;;;5002483;28;20033;-86
2022/09/23 09:57:30;;;;;;;7.10;4.07;;;15.90;99.90;;;;;;5031789;28;20076;-86
2022/09/23 09:59:56;;;;;;;8.85;4.80;;;16.00;99.90;;;;;;5032393;28;20085;-86
2022/09/23 10:02:32;;;;;;;7.85;4.30;;;16.00;99.90;;;;;;5016183;28;20107;-86
2022/09/23 10:05:01;;;;;;;6.75;4.50;;;16.00;99.90;;;;;;4995978;28;20369;-85
2022/09/23 10:07:32;;;;;;;7.55;4.35;;;16.10;99.90;;;;;;5016010;28;20048;-85
2022/09/23 10:10:17;;;;;;;7.60;4.63;;;16.20;99.90;;;;;;4996543;28;20042;-85
2022/09/23 10:12:48;;;;;;;6.75;3.83;;;16.20;99.90;;;;;;5012829;28;20128;-85
2022/09/23 10:15:32;;;;;;;8.77;4.78;;;16.30;99.90;;;;;;4996518;28;20415;-85
2022/09/23 10:18:01;;;;;;;7.18;4.10;;;16.40;99.90;;;;;;4996219;28;20484;-85
2022/09/23 10:20:36;;;;;;;8.30;3.88;;;16.50;99.90;;;;;;5012799;28;20045;-84
2022/09/23 10:23:14;;;;;;;6.55;4.05;;;16.60;99.90;;;;;;4996129;28;20037;-84
2022/09/23 10:25:41;;;;;;;8.48;4.03;;;16.70;99.90;;;;;;4996427;28;20400;-84
2022/09/23 10:28:54;;;;;;;6.78;3.92;;;16.80;99.90;;;;;;4980028;28;20380;-84
2022/09/23 10:31:27;;;;;;;8.80;4.72;;;16.90;99.90;;;;;;4993492;28;20578;-84
2022/09/23 10:34:01;;;;;;;10.20;4.35;;;17.00;99.90;;;;;;4996134;28;20045;-84
2022/09/23 10:36:29;;;;;;;7.90;4.82;;;17.10;99.90;;;;;;4984739;28;20037;-84
2022/09/23 10:48:44;;;;;;;8.02;4.40;;;17.30;99.90;;;;;;4997379;28;20462;-84
2022/09/23 10:51:31;;;;;;;6.38;4.05;;;17.30;99.90;;;;;;4992626;28;20397;-84
2022/09/23 10:54:11;;;;;;;7.47;4.60;;;17.40;99.90;;;;;;4976226;28;20049;-86
2022/09/23 10:56:39;;;;;;;8.45;4.90;;;17.40;99.90;;;;;;4976230;28;20054;-86
2022/09/23 10:59:40;;;;;;;10.98;5.63;;;17.40;99.90;;;;;;4976822;28;20051;-86
2022/09/23 11:02:22;;;;;;;10.00;5.18;;;17.40;99.90;;;;;;5015729;28;20045;-86
2022/09/23 11:05:18;;;;;;;7.68;4.75;;;17.40;99.90;;;;;;5031831;28;20049;-86
2022/09/23 11:08:13;;;;;;;8.93;4.82;;;17.40;99.90;;;;;;5015179;28;20560;-86
2022/09/23 11:10:54;;;;;;;12.73;4.70;;;17.00;99.90;;;;;;5031812;28;20116;-86
2022/09/23 11:13:22;;;;;;;10.52;4.95;;;17.20;99.90;;;;;;4995266;28;20037;-86
2022/09/23 11:16:19;;;;;;;10.63;5.10;;;17.10;99.90;;;;;;5011687;28;20046;-86
2022/09/23 11:19:20;;;;;;;8.80;5.47;;;17.00;99.90;;;;;;4984202;28;20053;-88
2022/09/23 11:22:25;;;;;;;11.35;5.15;;;17.10;99.90;;;;;;4973677;28;20053;-88
2022/09/23 11:24:57;;;;;;;8.50;4.63;;;17.00;99.90;;;;;;5022881;28;20400;-88
2022/09/23 11:27:29;;;;;;;8.20;4.63;;;17.10;99.90;;;;;;4998741;28;20038;-85
2022/09/23 11:30:09;;;;;;;11.18;5.78;;;17.20;99.90;;;;;;5015112;28;20511;-84
2022/09/23 11:32:54;;;;;;;13.48;5.20;;;16.80;99.90;;;;;;4998853;28;20038;-84
2022/09/23 11:35:46;;;;;;;9.27;5.45;;;17.00;99.90;;;;;;5013315;28;20041;-85
2022/09/23 11:38:32;;;;;;;9.95;5.22;;;17.00;99.90;;;;;;5027958;28;20089;-84
2022/09/23 11:41:07;;;;;;;10.75;5.22;;;16.90;99.90;;;;;;5034685;28;20046;-84
2022/09/23 11:43:38;;;;;;;12.95;6.68;;;16.90;99.90;;;;;;5020854;28;20056;-86
2022/09/23 11:46:19;;;;;;;8.88;5.65;;;16.90;99.90;;;;;;4998516;28;20044;-86
2022/09/23 11:48:53;;;;;;;11.98;6.13;;;16.70;99.90;;;;;;5014854;28;20164;-86
2022/09/23 11:51:24;;;;;;;10.88;5.55;;;16.70;99.90;;;;;;4998660;28;20050;-88
2022/09/23 11:54:18;;;;;;;12.50;5.97;;;16.60;99.90;;;;;;4998371;28;20042;-88
2022/09/23 11:56:47;;;;;;;11.55;5.68;;;16.60;99.90;;;;;;5032786;28;20049;-87
2022/09/23 11:59:42;;;;;;;11.45;5.38;;;16.60;99.90;;;;;;5017899;28;20045;-88
2022/09/23 12:02:47;;;;;;;15.57;6.65;;;16.70;99.90;;;;;;5034180;28;20476;-85
2022/09/23 12:05:21;;;;;;;11.30;5.93;;;16.80;99.90;;;;;;5017867;28;20049;-84
2022/09/23 12:07:55;;;;;;;8.88;5.55;;;16.70;99.90;;;;;;5006041;28;20501;-84
2022/09/23 12:10:35;;;;;;;11.75;5.88;;;16.70;99.90;;;;;;5017633;28;20052;-84
2022/09/23 12:13:12;;;;;;;8.77;5.38;;;16.70;99.90;;;;;;5034252;28;20049;-85
2022/09/23 12:16:15;;;;;;;9.50;5.22;;;16.70;99.90;;;;;;4997176;28;20121;-84
2022/09/23 12:19:04;;;;;;;8.27;5.07;;;16.70;99.90;;;;;;5021891;28;20042;-84
2022/09/23 12:21:50;;;;;;;10.88;5.90;;;16.60;99.90;;;;;;5033818;28;20080;-84
2022/09/23 12:24:30;;;;;;;9.77;5.40;;;16.70;99.90;;;;;;4999131;28;20042;-86
2022/09/23 12:27:00;;;;;;;10.95;5.28;;;16.70;99.90;;;;;;5013976;28;20292;-86
2022/09/23 12:29:30;;;;;;;7.63;4.72;;;16.70;99.90;;;;;;5014050;28;20113;-86
2022/09/23 12:31:57;;;;;;;9.60;5.38;;;16.70;99.90;;;;;;4997975;28;20050;-86
2022/09/23 12:34:47;;;;;;;9.15;5.22;;;16.70;99.90;;;;;;4995712;28;20042;-88
2022/09/23 12:37:25;;;;;;;13.80;5.70;;;16.70;99.90;;;;;;5033664;28;20037;-88
2022/09/23 12:39:52;;;;;;;11.73;5.72;;;16.60;99.90;;;;;;5000007;28;20081;-88
2022/09/23 12:42:21;;;;;;;9.80;5.28;;;16.60;99.90;;;;;;4981220;28;20045;-88
2022/09/23 12:44:48;;;;;;;8.45;5.32;;;16.70;99.90;;;;;;5020671;28;20054;-88
2022/09/23 12:47:13;;;;;;;12.07;5.28;;;16.70;99.90;;;;;;5017596;28;20404;-88
2022/09/23 12:49:41;;;;;;;11.25;6.25;;;16.70;99.90;;;;;;5013072;28;20033;-85
2022/09/23 12:52:09;;;;;;;10.98;5.55;;;16.70;99.90;;;;;;4997054;28;20065;-84
2022/09/23 12:54:40;;;;;;;11.65;5.38;;;16.70;99.90;;;;;;5013568;28;20042;-84
2022/09/23 12:57:34;;;;;;;10.52;6.32;;;16.70;99.90;;;;;;5013818;28;20050;-84
2022/09/23 13:00:08;;;;;;;10.85;5.57;;;16.60;99.90;;;;;;4999916;28;20060;-84
2022/09/23 13:02:46;;;;;;;7.35;5.03;;;16.60;99.90;;;;;;5016505;28;20045;-84
2022/09/23 13:08:23;;;;;;;11.77;5.57;;;16.60;99.90;;;;;;5013507;28;20041;-87
2022/09/23 13:10:55;;;;;;;9.32;6.22;;;16.50;99.90;;;;;;5018451;28;20072;-87
2022/09/23 13:13:43;;;;;;;10.23;5.70;;;16.50;99.90;;;;;;5012889;28;20116;-87
2022/09/23 13:16:12;;;;;;;14.32;8.20;;;16.40;99.90;;;;;;4996743;28;20499;-86
2022/09/23 13:19:03;;;;;;;13.57;6.38;;;16.30;99.90;;;;;;5008395;28;20072;-87
2022/09/23 13:21:45;;;;;;;11.43;5.70;;;16.30;99.90;;;;;;5010713;28;20495;-87
2022/09/23 13:24:28;;;;;;;13.05;6.15;;;16.20;99.90;;;;;;5033157;28;20407;-86
2022/09/23 13:27:18;;;;;;;13.50;6.63;;;16.20;99.90;;;;;;5032719;28;20450;-87
2022/09/23 13:29:59;;;;;;;13.23;7.07;;;16.10;99.90;;;;;;5032969;28;20048;-87
2022/09/23 13:32:38;;;;;;;10.90;6.65;;;16.10;99.90;;;;;;5027556;28;20373;-87
2022/09/23 13:35:05;;;;;;;14.48;6.20;;;16.00;99.90;;;;;;5013912;28;20055;-87
2022/09/23 13:37:48;;;;;;;12.73;6.03;;;16.00;99.90;;;;;;5030803;28;20037;-87